Time;durP1;ratioP1;P1;durP2;ratioP2;P2;SDS_P1;SDS_P2;PMS_P1;PMS_P2;Temp;Humidity;BMP_temperature;BMP_pressure;BME280_temperature;BME280_humidity;BME280_pressure;Samples;Min_cycle;Max_cycle;Signal;HPM_P1;HPM_P2
2022/09/17 00:01:04;;;;;;;0.80;0.70;;;16.40;99.90;;;;;;5114007;28;20048;-75
2022/09/17 00:03:33;;;;;;;0.05;0.00;;;16.50;99.90;;;;;;5095361;28;20081;-75
2022/09/17 00:06:04;;;;;;;0.03;0.03;;;16.50;99.90;;;;;;5113529;28;20055;-75
2022/09/17 00:08:32;;;;;;;0.20;0.20;;;16.50;99.90;;;;;;5113595;28;20047;-75
2022/09/17 00:11:06;;;;;;;0.10;0.10;;;16.60;99.90;;;;;;5113314;28;20057;-76
2022/09/17 00:13:34;;;;;;;0.45;0.45;;;16.50;99.90;;;;;;5113429;28;20453;-75
2022/09/17 00:16:01;;;;;;;0.00;0.00;;;16.50;99.90;;;;;;5113600;28;20070;-76
2022/09/17 00:18:29;;;;;;;1.88;1.17;;;16.50;99.90;;;;;;5113442;28;20038;-76
2022/09/17 00:20:56;;;;;;;1.98;0.63;;;16.50;99.90;;;;;;5113599;28;20123;-75
2022/09/17 00:23:25;;;;;;;0.30;0.30;;;16.50;99.90;;;;;;5113018;28;20084;-76
2022/09/17 00:25:52;;;;;;;19.38;0.90;;;16.30;99.90;;;;;;5113375;28;20509;-76
2022/09/17 00:28:19;;;;;;;0.77;0.68;;;16.20;99.90;;;;;;5113562;28;20043;-76
2022/09/17 00:30:47;;;;;;;1.35;1.25;;;16.10;99.90;;;;;;5113430;28;20054;-77
2022/09/17 00:33:17;;;;;;;0.00;0.00;;;16.10;99.90;;;;;;5116495;28;20482;-78
2022/09/17 00:35:44;;;;;;;0.10;0.10;;;16.10;99.90;;;;;;5115450;28;20089;-78
2022/09/17 00:38:12;;;;;;;0.00;0.00;;;16.10;99.90;;;;;;5115815;28;20108;-75
2022/09/17 00:40:40;;;;;;;0.03;0.00;;;16.10;99.90;;;;;;5112607;28;20039;-75
2022/09/17 00:43:12;;;;;;;0.10;0.10;;;16.10;99.90;;;;;;5094813;28;20494;-75
2022/09/17 00:45:39;;;;;;;2.03;0.43;;;16.00;99.90;;;;;;5113151;28;20048;-75
2022/09/17 00:48:07;;;;;;;0.45;0.45;;;15.90;99.90;;;;;;5113488;28;20044;-76
2022/09/17 00:50:38;;;;;;;0.00;0.00;;;15.90;99.90;;;;;;5113349;28;20445;-76
2022/09/17 00:53:08;;;;;;;0.00;0.00;;;15.80;99.90;;;;;;5113246;28;20118;-76
2022/09/17 00:55:38;;;;;;;0.00;0.00;;;15.70;99.90;;;;;;5095983;28;20060;-75
2022/09/17 00:58:10;;;;;;;0.00;0.00;;;15.60;99.90;;;;;;5115130;28;20040;-76
2022/09/17 01:00:40;;;;;;;0.00;0.00;;;15.60;99.90;;;;;;5115730;28;20047;-76
2022/09/17 01:03:07;;;;;;;0.00;0.00;;;15.50;99.90;;;;;;5116893;28;20044;-76
2022/09/17 01:05:44;;;;;;;0.32;0.15;;;15.50;99.90;;;;;;5116734;28;20114;-75
2022/09/17 01:08:22;;;;;;;0.00;0.00;;;15.70;99.90;;;;;;5117503;28;20040;-78
2022/09/17 01:11:08;;;;;;;0.03;0.03;;;15.50;99.90;;;;;;5119315;28;20043;-78
2022/09/17 01:13:50;;;;;;;0.00;0.00;;;15.00;99.90;;;;;;5119385;28;20042;-78
2022/09/17 01:16:23;;;;;;;0.25;0.15;;;14.90;99.90;;;;;;5099653;28;20063;-78
2022/09/17 01:18:58;;;;;;;0.00;0.00;;;14.90;99.90;;;;;;5099474;28;20032;-78
2022/09/17 01:21:52;;;;;;;0.00;0.00;;;14.70;99.90;;;;;;5099265;28;20036;-78
2022/09/17 01:24:51;;;;;;;0.00;0.00;;;14.60;99.90;;;;;;5084832;28;20039;-78
2022/09/17 01:28:03;;;;;;;0.00;0.00;;;14.50;99.90;;;;;;5118823;28;20050;-79
2022/09/17 01:31:07;;;;;;;0.45;0.45;;;14.40;99.90;;;;;;5059380;28;20059;-78
2022/09/17 01:33:42;;;;;;;0.00;0.00;;;14.40;99.90;;;;;;5118662;28;20097;-78
2022/09/17 01:36:31;;;;;;;0.00;0.00;;;14.30;99.90;;;;;;5119526;28;20092;-78
2022/09/17 01:39:06;;;;;;;0.00;0.00;;;14.30;99.90;;;;;;5119235;28;20284;-78
2022/09/17 01:41:40;;;;;;;0.00;0.00;;;14.40;99.90;;;;;;5117874;28;20043;-78
2022/09/17 01:44:12;;;;;;;0.00;0.00;;;14.40;99.90;;;;;;5118232;28;20093;-78
2022/09/17 01:46:43;;;;;;;0.00;0.00;;;14.40;99.90;;;;;;5119038;28;20392;-78
2022/09/17 01:49:15;;;;;;;0.00;0.00;;;14.50;99.90;;;;;;5117530;28;20039;-78
2022/09/17 01:51:47;;;;;;;0.00;0.00;;;14.40;99.90;;;;;;5116322;28;20048;-78
2022/09/17 01:54:21;;;;;;;0.00;0.00;;;14.30;99.90;;;;;;5115208;28;20206;-77
2022/09/17 01:56:55;;;;;;;0.20;0.20;;;14.40;99.90;;;;;;5098434;28;20051;-77
2022/09/17 01:59:26;;;;;;;0.00;0.00;;;14.30;99.90;;;;;;5098742;28;20124;-77
2022/09/17 02:01:58;;;;;;;0.00;0.00;;;14.20;99.90;;;;;;5116156;28;20127;-77
2022/09/17 02:04:33;;;;;;;0.00;0.00;;;14.30;99.90;;;;;;5115757;28;20074;-77
2022/09/17 02:07:04;;;;;;;;;;;14.40;99.90;;;;;;5097424;28;20052;-77
2022/09/17 02:09:38;;;;;;;0.00;0.00;;;14.30;99.90;;;;;;5097598;28;20010;-77
2022/09/17 02:12:11;;;;;;;0.00;0.00;;;14.40;99.90;;;;;;5116046;28;20078;-77
2022/09/17 02:14:43;;;;;;;0.00;0.00;;;14.40;99.90;;;;;;5115531;28;20036;-77
2022/09/17 02:17:16;;;;;;;0.00;0.00;;;14.40;99.90;;;;;;5116484;28;20063;-79
2022/09/17 02:19:45;;;;;;;0.00;0.00;;;14.40;99.90;;;;;;5116815;28;20391;-77
2022/09/17 02:22:21;;;;;;;0.00;0.00;;;14.30;99.90;;;;;;5117418;28;20043;-76
2022/09/17 02:24:58;;;;;;;0.00;0.00;;;14.30;99.90;;;;;;5115434;28;20042;-76
2022/09/17 02:27:40;;;;;;;0.00;0.00;;;14.30;99.90;;;;;;5115521;28;20032;-76
2022/09/17 02:30:08;;;;;;;0.00;0.00;;;14.10;99.90;;;;;;5115499;28;20042;-76
2022/09/17 02:32:35;;;;;;;0.00;0.00;;;14.10;99.90;;;;;;5115625;28;20110;-76
2022/09/17 02:35:06;;;;;;;0.00;0.00;;;14.10;99.90;;;;;;5115827;28;20047;-76
2022/09/17 02:37:34;;;;;;;0.00;0.00;;;14.20;99.90;;;;;;5117614;28;20042;-75
2022/09/17 02:40:02;;;;;;;0.10;0.10;;;14.30;99.90;;;;;;5119069;28;20031;-76
2022/09/17 02:42:35;;;;;;;0.00;0.00;;;14.20;99.90;;;;;;5116816;28;20120;-76
2022/09/17 02:45:06;;;;;;;0.00;0.00;;;14.20;99.90;;;;;;5115890;28;20059;-76
2022/09/17 02:47:49;;;;;;;0.00;0.00;;;14.20;99.90;;;;;;5115079;28;20126;-76
2022/09/17 02:50:30;;;;;;;0.00;0.00;;;14.20;99.90;;;;;;5115211;28;20039;-76
2022/09/17 02:53:11;;;;;;;0.00;0.00;;;14.10;99.90;;;;;;5116510;28;20063;-78
2022/09/17 02:55:45;;;;;;;0.00;0.00;;;14.20;99.90;;;;;;5117494;28;20474;-78
2022/09/17 02:58:22;;;;;;;0.00;0.00;;;14.10;99.90;;;;;;5117353;28;20047;-78
2022/09/17 03:00:50;;;;;;;0.00;0.00;;;14.10;99.90;;;;;;5116604;28;20065;-76
2022/09/17 03:03:21;;;;;;;0.00;0.00;;;14.10;99.90;;;;;;5096447;28;20043;-76
2022/09/17 03:05:51;;;;;;;0.00;0.00;;;14.10;99.90;;;;;;5096821;28;20406;-76
2022/09/17 03:08:19;;;;;;;0.00;0.00;;;14.00;99.90;;;;;;5115421;28;20036;-78
2022/09/17 03:10:48;;;;;;;0.05;0.05;;;13.90;99.90;;;;;;5098039;28;20631;-78
2022/09/17 03:13:16;;;;;;;0.00;0.00;;;13.90;99.90;;;;;;5116143;28;20044;-78
2022/09/17 03:15:43;;;;;;;0.10;0.10;;;13.80;99.90;;;;;;5098078;28;20066;-78
2022/09/17 03:18:10;;;;;;;0.00;0.00;;;13.60;99.90;;;;;;5115051;28;20036;-77
2022/09/17 03:20:37;;;;;;;0.00;0.00;;;13.60;99.90;;;;;;5116062;28;20047;-77
2022/09/17 03:23:06;;;;;;;0.08;0.08;;;13.40;99.90;;;;;;5116468;28;20444;-78
2022/09/17 03:25:33;;;;;;;0.00;0.00;;;13.30;99.90;;;;;;5115367;28;20063;-77
2022/09/17 03:28:00;;;;;;;0.00;0.00;;;13.30;99.90;;;;;;5113904;28;20495;-76
2022/09/17 03:30:28;;;;;;;0.00;0.00;;;13.30;99.90;;;;;;5095946;28;20105;-76
2022/09/17 03:32:55;;;;;;;0.00;0.00;;;13.20;99.90;;;;;;5114369;28;20043;-76
2022/09/17 03:35:22;;;;;;;0.00;0.00;;;13.20;99.90;;;;;;5114398;28;20042;-76
2022/09/17 03:37:50;;;;;;;0.95;0.22;;;13.20;99.90;;;;;;5114931;28;20039;-77
2022/09/17 03:40:18;;;;;;;0.00;0.00;;;13.20;99.90;;;;;;5114310;28;20402;-76
2022/09/17 03:42:46;;;;;;;0.10;0.03;;;13.20;99.90;;;;;;5113877;28;20120;-77
2022/09/17 03:45:13;;;;;;;0.25;0.22;;;13.10;99.90;;;;;;5114027;28;20126;-76
2022/09/17 03:47:40;;;;;;;0.70;0.50;;;13.10;99.90;;;;;;5113946;28;20123;-76
2022/09/17 03:50:08;;;;;;;0.00;0.00;;;13.00;99.90;;;;;;5113984;28;20047;-76
2022/09/17 03:52:35;;;;;;;0.30;0.30;;;12.90;99.90;;;;;;5114207;28;20047;-76
2022/09/17 03:55:03;;;;;;;0.17;0.05;;;12.90;99.90;;;;;;5112318;28;20127;-76
2022/09/17 03:57:32;;;;;;;0.00;0.00;;;12.90;99.90;;;;;;5096481;28;20043;-75
2022/09/17 03:59:59;;;;;;;0.00;0.00;;;12.90;99.90;;;;;;5095401;28;20534;-74
2022/09/17 04:02:26;;;;;;;0.00;0.00;;;12.90;99.90;;;;;;5113702;28;20063;-75
2022/09/17 04:04:53;;;;;;;0.00;0.00;;;12.90;99.90;;;;;;5114351;28;20071;-74
2022/09/17 04:07:21;;;;;;;0.00;0.00;;;13.00;99.90;;;;;;5114296;28;20044;-75
2022/09/17 04:09:48;;;;;;;0.00;0.00;;;13.00;99.90;;;;;;5113525;28;20040;-76
2022/09/17 04:12:15;;;;;;;0.00;0.00;;;13.00;99.90;;;;;;5095069;28;20146;-76
2022/09/17 04:14:44;;;;;;;0.00;0.00;;;12.90;99.90;;;;;;5112647;28;20067;-76
2022/09/17 04:17:16;;;;;;;0.10;0.08;;;12.90;99.90;;;;;;5113543;28;20065;-76
2022/09/17 04:19:44;;;;;;;0.00;0.00;;;12.90;99.90;;;;;;5113229;28;20040;-76
2022/09/17 04:22:11;;;;;;;0.00;0.00;;;12.90;99.90;;;;;;5113296;28;20122;-76
2022/09/17 04:24:38;;;;;;;0.00;0.00;;;13.00;99.90;;;;;;5112248;28;20052;-75
2022/09/17 04:27:06;;;;;;;0.00;0.00;;;13.10;99.90;;;;;;5113468;28;20075;-75
2022/09/17 04:29:33;;;;;;;0.00;0.00;;;13.00;99.90;;;;;;5094529;28;20066;-75
2022/09/17 04:32:02;;;;;;;0.10;0.10;;;13.10;99.90;;;;;;5113980;28;20106;-75
2022/09/17 04:34:30;;;;;;;0.00;0.00;;;13.00;99.90;;;;;;5117267;28;20066;-74
2022/09/17 04:36:58;;;;;;;0.00;0.00;;;13.00;99.90;;;;;;5117287;28;20406;-76
2022/09/17 04:39:25;;;;;;;0.63;0.52;;;13.00;99.90;;;;;;5117781;28;20475;-75
2022/09/17 04:41:52;;;;;;;0.00;0.00;;;13.10;99.90;;;;;;5098492;28;20044;-75
2022/09/17 04:44:19;;;;;;;0.00;0.00;;;13.00;99.90;;;;;;5117272;28;20063;-75
2022/09/17 04:46:47;;;;;;;0.00;0.00;;;13.10;99.90;;;;;;5117998;28;20073;-75
2022/09/17 04:49:16;;;;;;;0.10;0.10;;;13.10;99.90;;;;;;5117240;28;20467;-76
2022/09/17 04:51:43;;;;;;;0.00;0.00;;;13.20;99.90;;;;;;5117317;28;20098;-76
2022/09/17 04:54:10;;;;;;;0.00;0.00;;;13.10;99.90;;;;;;5116862;28;20079;-76
2022/09/17 04:56:37;;;;;;;2.08;0.70;;;13.20;99.90;;;;;;5098467;28;20067;-76
2022/09/17 04:59:05;;;;;;;0.25;0.25;;;13.30;99.90;;;;;;5116756;28;20043;-76
2022/09/17 05:01:32;;;;;;;0.40;0.20;;;13.30;99.90;;;;;;5117332;28;20043;-76
2022/09/17 05:04:00;;;;;;;0.00;0.00;;;13.40;99.90;;;;;;5111442;28;20044;-76
2022/09/17 05:06:29;;;;;;;0.03;0.03;;;13.40;99.90;;;;;;5106463;28;20044;-77
2022/09/17 05:08:56;;;;;;;0.00;0.00;;;13.40;99.90;;;;;;5116814;28;20387;-77
2022/09/17 05:11:23;;;;;;;0.63;0.47;;;13.30;99.90;;;;;;5117521;28;20039;-76
2022/09/17 05:13:50;;;;;;;0.00;0.00;;;13.20;99.90;;;;;;5098509;28;20108;-77
2022/09/17 05:16:17;;;;;;;0.20;0.20;;;13.10;99.90;;;;;;5097250;28;20097;-75
2022/09/17 05:18:45;;;;;;;0.00;0.00;;;13.00;99.90;;;;;;5109382;28;20044;-77
2022/09/17 05:21:13;;;;;;;1.48;0.73;;;13.00;99.90;;;;;;5116930;28;20039;-76
2022/09/17 05:23:41;;;;;;;0.17;0.17;;;12.90;99.90;;;;;;5115328;28;20510;-78
2022/09/17 05:26:09;;;;;;;9.00;1.52;;;12.90;99.90;;;;;;5114593;28;20039;-78
2022/09/17 05:28:36;;;;;;;0.00;0.00;;;12.80;99.90;;;;;;5117750;28;20065;-77
2022/09/17 05:31:03;;;;;;;0.00;0.00;;;12.90;99.90;;;;;;5116874;28;20058;-78
2022/09/17 05:33:31;;;;;;;3.70;1.42;;;12.90;99.90;;;;;;5098325;28;20079;-78
2022/09/17 05:35:58;;;;;;;0.55;0.50;;;12.90;99.90;;;;;;5098259;28;20054;-75
2022/09/17 05:38:26;;;;;;;1.05;1.00;;;13.00;99.90;;;;;;5115873;28;20039;-76
2022/09/17 05:40:54;;;;;;;0.52;0.52;;;13.00;99.90;;;;;;5115259;28;20071;-76
2022/09/17 05:43:22;;;;;;;0.00;0.00;;;13.00;99.90;;;;;;5115929;28;20453;-77
2022/09/17 05:45:50;;;;;;;0.10;0.10;;;13.00;99.90;;;;;;5115723;28;20039;-78
2022/09/17 05:48:17;;;;;;;0.00;0.00;;;13.00;99.90;;;;;;5097041;28;20097;-76
2022/09/17 05:50:45;;;;;;;0.00;0.00;;;13.00;99.90;;;;;;5116435;28;20043;-76
2022/09/17 05:53:13;;;;;;;0.00;0.00;;;13.00;99.90;;;;;;5105153;28;20122;-76
2022/09/17 05:55:40;;;;;;;0.00;0.00;;;13.10;99.90;;;;;;5116062;28;20083;-76
2022/09/17 05:58:13;;;;;;;3.90;0.77;;;13.10;99.90;;;;;;5115932;28;20188;-77
2022/09/17 06:00:41;;;;;;;0.15;0.15;;;13.20;99.90;;;;;;5115948;28;20040;-76
2022/09/17 06:03:10;;;;;;;0.28;0.20;;;13.20;99.90;;;;;;5115713;28;20507;-76
2022/09/17 06:05:38;;;;;;;0.82;0.75;;;13.30;99.90;;;;;;5116103;28;20097;-75
2022/09/17 06:08:06;;;;;;;0.10;0.10;;;13.40;99.90;;;;;;5097655;28;20120;-76
2022/09/17 06:10:36;;;;;;;0.57;0.40;;;13.50;99.90;;;;;;5097183;28;20048;-77
2022/09/17 06:13:03;;;;;;;0.47;0.32;;;13.60;99.90;;;;;;5095291;28;20082;-76
2022/09/17 06:15:32;;;;;;;2.88;0.75;;;13.60;99.90;;;;;;5096425;28;20059;-76
2022/09/17 06:17:59;;;;;;;7.88;0.43;;;13.60;99.90;;;;;;5108853;28;20040;-76
2022/09/17 06:20:26;;;;;;;0.17;0.17;;;13.60;99.90;;;;;;5115388;28;20036;-75
2022/09/17 06:22:57;;;;;;;0.25;0.25;;;13.60;99.90;;;;;;5116627;28;20042;-75
2022/09/17 06:25:25;;;;;;;0.80;0.60;;;13.60;99.90;;;;;;5117497;28;20048;-75
2022/09/17 06:27:52;;;;;;;0.63;0.63;;;13.60;99.90;;;;;;5106525;28;20117;-75
2022/09/17 06:30:19;;;;;;;0.30;0.30;;;13.60;99.90;;;;;;5102197;28;20062;-75
2022/09/17 06:32:48;;;;;;;0.43;0.43;;;13.60;99.90;;;;;;5115832;28;20036;-75
2022/09/17 06:35:16;;;;;;;0.60;0.60;;;13.70;99.90;;;;;;5116275;28;20051;-75
2022/09/17 06:37:43;;;;;;;0.55;0.50;;;13.60;99.90;;;;;;5114614;28;20036;-76
2022/09/17 06:40:10;;;;;;;0.80;0.80;;;13.60;99.90;;;;;;5115399;28;20386;-75
2022/09/17 06:42:38;;;;;;;0.40;0.40;;;13.70;99.90;;;;;;5115003;28;20063;-75
2022/09/17 06:45:06;;;;;;;0.00;0.00;;;13.70;99.90;;;;;;5114881;28;20043;-75
2022/09/17 06:47:33;;;;;;;0.82;0.57;;;13.70;99.90;;;;;;5114827;28;20044;-76
2022/09/17 06:50:02;;;;;;;0.00;0.00;;;13.60;99.90;;;;;;5114470;28;20112;-76
2022/09/17 06:52:29;;;;;;;0.20;0.20;;;13.50;99.90;;;;;;5112980;28;20086;-76
2022/09/17 06:54:56;;;;;;;0.10;0.10;;;13.40;99.90;;;;;;5113663;28;20084;-79
2022/09/17 06:57:23;;;;;;;1.08;0.77;;;13.30;99.90;;;;;;5095495;28;20495;-72
2022/09/17 06:59:51;;;;;;;1.08;0.95;;;13.30;99.90;;;;;;5114419;28;20032;-69
2022/09/17 07:02:18;;;;;;;1.50;1.08;;;13.50;99.90;;;;;;5115040;28;20566;-72
2022/09/17 07:04:45;;;;;;;0.85;0.65;;;13.50;99.90;;;;;;5115450;28;20122;-73
2022/09/17 07:07:14;;;;;;;0.10;0.10;;;13.60;99.90;;;;;;5098206;28;20052;-75
2022/09/17 07:09:41;;;;;;;0.70;0.43;;;13.70;99.90;;;;;;5094652;28;20071;-69
2022/09/17 07:12:09;;;;;;;7.15;1.05;;;13.70;99.90;;;;;;5094125;28;20063;-70
2022/09/17 07:14:36;;;;;;;0.65;0.45;;;13.70;99.90;;;;;;5094289;28;20048;-69
2022/09/17 07:17:03;;;;;;;0.00;0.00;;;13.80;99.90;;;;;;5094901;28;20047;-69
2022/09/17 07:19:31;;;;;;;0.70;0.70;;;13.80;99.90;;;;;;5106276;28;20039;-70
2022/09/17 07:21:58;;;;;;;0.00;0.00;;;14.00;99.90;;;;;;5113752;28;20046;-69
2022/09/17 07:24:27;;;;;;;0.80;0.70;;;14.10;99.90;;;;;;5112802;28;20088;-68
2022/09/17 07:26:54;;;;;;;0.10;0.10;;;14.30;99.90;;;;;;5114214;28;20065;-68
2022/09/17 07:29:25;;;;;;;0.38;0.38;;;14.40;99.90;;;;;;5096433;28;20448;-70
2022/09/17 07:31:52;;;;;;;1.05;0.68;;;14.60;99.90;;;;;;5111821;28;20066;-70
2022/09/17 07:34:19;;;;;;;0.77;0.73;;;14.70;99.90;;;;;;5113736;28;20031;-69
2022/09/17 07:36:47;;;;;;;1.45;0.80;;;14.70;99.90;;;;;;5113928;28;20567;-69
2022/09/17 07:39:14;;;;;;;2.00;1.85;;;14.70;99.90;;;;;;5113860;28;20042;-69
2022/09/17 07:41:42;;;;;;;0.03;0.03;;;14.70;99.90;;;;;;5095711;28;20490;-68
2022/09/17 07:44:10;;;;;;;0.73;0.73;;;14.80;99.90;;;;;;5095392;28;20063;-70
2022/09/17 07:46:37;;;;;;;0.22;0.22;;;14.70;99.90;;;;;;5113963;28;20113;-69
2022/09/17 07:49:04;;;;;;;0.40;0.40;;;14.80;99.90;;;;;;5095395;28;20071;-69
2022/09/17 07:51:31;;;;;;;0.65;0.65;;;14.90;99.90;;;;;;5113822;28;20067;-69
2022/09/17 07:54:01;;;;;;;2.22;1.50;;;14.80;99.90;;;;;;5113437;28;20059;-69
2022/09/17 07:56:28;;;;;;;1.80;1.45;;;14.80;99.90;;;;;;5095347;28;20048;-69
2022/09/17 07:58:57;;;;;;;1.40;1.30;;;14.70;99.90;;;;;;5113462;28;20036;-69
2022/09/17 08:01:26;;;;;;;1.58;1.45;;;14.60;99.90;;;;;;5095625;28;20048;-69
2022/09/17 08:03:54;;;;;;;1.73;1.45;;;14.50;99.90;;;;;;5113150;28;20043;-69
2022/09/17 08:06:24;;;;;;;0.93;0.57;;;14.50;99.90;;;;;;5113866;28;20039;-69
2022/09/17 08:08:52;;;;;;;1.45;1.35;;;14.60;99.90;;;;;;5113867;28;20071;-69
2022/09/17 08:11:20;;;;;;;2.15;1.58;;;14.60;99.90;;;;;;5113905;28;20063;-69
2022/09/17 08:13:48;;;;;;;0.45;0.40;;;14.70;99.90;;;;;;5113829;28;20116;-69
2022/09/17 08:16:19;;;;;;;2.72;0.82;;;14.80;99.90;;;;;;5113826;28;20055;-68
2022/09/17 08:18:47;;;;;;;1.17;1.02;;;14.80;99.90;;;;;;5114919;28;20035;-68
2022/09/17 08:21:15;;;;;;;0.68;0.45;;;14.90;99.90;;;;;;5114072;28;20067;-68
2022/09/17 08:23:44;;;;;;;0.73;0.73;;;15.00;99.90;;;;;;5114411;28;20123;-68
2022/09/17 08:26:14;;;;;;;0.43;0.43;;;15.00;99.90;;;;;;5113725;28;20043;-69
2022/09/17 08:28:46;;;;;;;0.38;0.38;;;15.00;99.90;;;;;;5112151;28;20086;-69
2022/09/17 08:31:14;;;;;;;0.00;0.00;;;14.90;99.90;;;;;;5113311;28;20033;-69
2022/09/17 08:33:43;;;;;;;0.85;0.82;;;14.80;99.90;;;;;;5113145;28;20118;-69
2022/09/17 08:36:12;;;;;;;1.15;1.05;;;14.70;99.90;;;;;;5113106;28;20059;-70
2022/09/17 08:38:40;;;;;;;0.73;0.73;;;14.50;99.90;;;;;;5113248;28;20067;-69
2022/09/17 08:41:22;;;;;;;1.40;1.15;;;14.50;99.90;;;;;;5113571;28;20045;-69
2022/09/17 08:43:58;;;;;;;0.28;0.28;;;14.50;99.90;;;;;;5113131;28;20498;-68
2022/09/17 08:46:26;;;;;;;0.15;0.15;;;14.70;99.90;;;;;;5113233;28;20097;-68
2022/09/17 08:49:14;;;;;;;0.00;0.00;;;14.80;99.90;;;;;;5113043;28;20135;-68
2022/09/17 08:51:50;;;;;;;0.00;0.00;;;15.00;99.90;;;;;;5095034;28;20050;-69
2022/09/17 08:54:27;;;;;;;12.80;9.13;;;14.90;99.90;;;;;;5113187;28;20403;-69
2022/09/17 08:57:08;;;;;;;12.30;9.63;;;15.00;99.90;;;;;;5112907;28;20063;-69
2022/09/17 08:59:39;;;;;;;24.08;16.08;;;14.90;99.90;;;;;;5112895;28;20371;-73
2022/09/17 09:02:21;;;;;;;32.15;20.45;;;14.90;99.90;;;;;;5094625;28;20047;-69
2022/09/17 09:05:01;;;;;;;34.00;21.48;;;14.80;99.90;;;;;;5112703;28;20075;-69
2022/09/17 09:07:32;;;;;;;31.38;19.02;;;14.80;99.90;;;;;;5113067;28;20044;-68
2022/09/17 09:10:13;;;;;;;36.15;21.02;;;14.70;99.90;;;;;;5112833;28;20040;-69
2022/09/17 09:12:42;;;;;;;23.65;16.38;;;14.70;99.90;;;;;;5112900;28;20118;-69
2022/09/17 09:15:31;;;;;;;29.75;20.38;;;14.70;99.90;;;;;;5112847;28;20055;-69
2022/09/17 09:18:05;;;;;;;23.58;16.48;;;14.80;99.90;;;;;;5116204;28;20046;-70
2022/09/17 09:20:50;;;;;;;21.50;14.82;;;14.90;99.90;;;;;;5116846;28;20066;-69
2022/09/17 09:23:20;;;;;;;27.65;17.98;;;15.00;99.90;;;;;;5116587;28;20051;-68
2022/09/17 09:26:00;;;;;;;25.17;17.85;;;15.10;99.90;;;;;;5116531;28;20040;-68
2022/09/17 09:28:41;;;;;;;31.85;22.55;;;15.30;99.90;;;;;;5116430;28;20040;-68
2022/09/17 09:31:27;;;;;;;31.60;19.90;;;15.40;99.90;;;;;;5116431;28;20498;-69
2022/09/17 09:33:56;;;;;;;29.13;20.15;;;15.70;99.90;;;;;;5116246;28;20063;-69
2022/09/17 09:36:30;;;;;;;29.23;20.45;;;15.80;99.90;;;;;;5116284;28;20089;-68
2022/09/17 09:39:02;;;;;;;32.08;19.70;;;16.00;99.90;;;;;;5098017;28;20509;-68
2022/09/17 09:41:35;;;;;;;31.33;21.45;;;16.10;99.90;;;;;;5116294;28;20563;-68
2022/09/17 09:44:05;;;;;;;50.40;23.85;;;16.30;99.90;;;;;;5116153;28;20044;-68
2022/09/17 09:46:50;;;;;;;30.55;21.55;;;16.30;99.90;;;;;;5115786;28;20050;-69
2022/09/17 09:49:29;;;;;;;32.45;20.75;;;16.10;99.90;;;;;;5114325;28;20071;-70
2022/09/17 09:52:16;;;;;;;29.65;19.15;;;15.90;99.90;;;;;;5116201;28;20063;-69
2022/09/17 09:54:58;;;;;;;31.15;19.67;;;15.70;99.90;;;;;;5115724;28;20043;-69
2022/09/17 09:57:36;;;;;;;47.17;24.08;;;15.60;99.90;;;;;;5098263;28;20535;-71
2022/09/17 10:00:28;;;;;;;34.88;22.27;;;15.60;99.90;;;;;;5116319;28;20063;-71
2022/09/17 10:03:01;;;;;;;31.02;18.58;;;15.60;99.90;;;;;;5116010;28;20487;-70
2022/09/17 10:05:29;;;;;;;24.80;17.35;;;15.40;99.90;;;;;;5115973;28;20066;-70
2022/09/17 10:07:58;;;;;;;26.75;17.55;;;15.20;99.90;;;;;;5115719;28;20074;-70
2022/09/17 10:10:25;;;;;;;28.35;18.38;;;15.30;99.90;;;;;;5115720;28;20032;-71
2022/09/17 10:13:07;;;;;;;27.30;17.63;;;15.40;99.90;;;;;;5115519;28;20096;-71
2022/09/17 10:15:34;;;;;;;21.75;13.45;;;15.40;99.90;;;;;;5115334;28;20406;-71
2022/09/17 10:18:15;;;;;;;17.45;12.35;;;15.40;99.90;;;;;;5115858;28;20059;-71
2022/09/17 10:20:58;;;;;;;16.10;11.02;;;15.40;99.90;;;;;;5115346;28;20118;-71
2022/09/17 10:23:28;;;;;;;18.27;12.25;;;15.40;99.90;;;;;;5115282;28;20045;-71
2022/09/17 10:25:56;;;;;;;15.90;9.65;;;15.30;99.90;;;;;;5115748;28;20047;-72
2022/09/17 10:28:46;;;;;;;9.85;7.35;;;15.30;99.90;;;;;;5114925;28;20073;-72
2022/09/17 10:31:14;;;;;;;13.10;7.10;;;15.30;99.90;;;;;;5115475;28;20123;-71
2022/09/17 10:33:53;;;;;;;8.18;6.35;;;15.40;99.90;;;;;;5096498;28;20517;-71
2022/09/17 10:36:37;;;;;;;6.25;4.60;;;15.30;99.90;;;;;;5115514;28;20055;-71
2022/09/17 10:39:32;;;;;;;6.13;4.35;;;15.20;99.90;;;;;;5096758;28;20077;-71
2022/09/17 10:42:01;;;;;;;5.82;3.33;;;15.00;99.90;;;;;;5115139;28;20067;-72
2022/09/17 10:44:30;;;;;;;7.03;2.20;;;14.90;99.90;;;;;;5114589;28;20544;-71
2022/09/17 10:47:06;;;;;;;4.68;1.88;;;15.00;99.90;;;;;;5115059;28;20059;-71
2022/09/17 10:49:41;;;;;;;6.32;2.20;;;15.10;99.90;;;;;;5114650;28;20085;-71
2022/09/17 10:52:12;;;;;;;3.83;2.35;;;15.20;99.90;;;;;;5115190;28;20163;-71
2022/09/17 10:55:15;;;;;;;11.85;4.57;;;15.20;99.90;;;;;;5114625;28;20448;-71
2022/09/17 10:58:02;;;;;;;3.70;2.40;;;15.20;99.90;;;;;;5114942;28;20043;-70
2022/09/17 11:00:37;;;;;;;3.90;2.20;;;15.20;99.90;;;;;;5114605;28;20081;-70
2022/09/17 11:03:55;;;;;;;4.32;1.70;;;15.00;99.90;;;;;;5114173;28;20586;-70
2022/09/17 11:06:58;;;;;;;4.72;2.80;;;14.90;99.90;;;;;;5114352;28;20502;-72
2022/09/17 11:09:35;;;;;;;4.68;2.50;;;15.00;99.90;;;;;;5114390;28;20198;-70
2022/09/17 11:12:21;;;;;;;4.32;2.00;;;14.90;99.90;;;;;;5114555;28;20040;-71
2022/09/17 11:14:56;;;;;;;2.10;1.38;;;14.70;99.90;;;;;;5113979;28;20471;-71
2022/09/17 11:17:51;;;;;;;1.95;1.00;;;14.80;99.90;;;;;;5114452;28;20040;-72
2022/09/17 11:20:28;;;;;;;1.88;1.08;;;14.70;99.90;;;;;;5111978;28;20056;-70
2022/09/17 11:23:05;;;;;;;1.85;0.93;;;14.60;99.90;;;;;;5113763;28;20475;-71
2022/09/17 11:25:45;;;;;;;1.95;1.00;;;14.60;99.90;;;;;;5095996;28;20096;-71
2022/09/17 11:28:39;;;;;;;2.40;1.30;;;14.70;99.90;;;;;;5114283;28;20399;-72
2022/09/17 11:31:20;;;;;;;0.85;0.50;;;14.80;99.90;;;;;;5114287;28;20126;-71
2022/09/17 11:34:22;;;;;;;1.40;0.60;;;14.70;99.90;;;;;;5114690;28;20055;-71
2022/09/17 11:36:58;;;;;;;0.85;0.35;;;14.70;99.90;;;;;;5114116;28;20044;-72
2022/09/17 11:39:33;;;;;;;0.70;0.30;;;14.70;99.90;;;;;;5113407;27;20498;-71
2022/09/17 11:42:03;;;;;;;4.82;0.85;;;14.60;99.90;;;;;;5114568;28;20040;-71
2022/09/17 11:44:37;;;;;;;0.77;0.40;;;14.60;99.90;;;;;;5113992;28;20051;-71
2022/09/17 11:47:10;;;;;;;3.67;1.80;;;14.60;99.90;;;;;;5114396;28;20119;-70
2022/09/17 11:49:41;;;;;;;7.90;5.30;;;14.70;99.90;;;;;;5114241;28;20131;-69
2022/09/17 11:52:11;;;;;;;3.10;1.70;;;14.80;99.90;;;;;;5113866;28;20134;-70
2022/09/17 11:54:44;;;;;;;7.38;1.45;;;14.80;99.90;;;;;;5113929;28;20040;-71
2022/09/17 11:57:16;;;;;;;4.75;2.03;;;15.00;99.90;;;;;;5113938;28;20079;-72
2022/09/17 11:59:53;;;;;;;2.00;0.98;;;15.00;99.90;;;;;;5113973;28;20092;-71
2022/09/17 12:02:26;;;;;;;1.77;1.00;;;15.00;99.90;;;;;;5113955;28;20044;-71
2022/09/17 12:04:58;;;;;;;1.73;0.90;;;14.90;99.90;;;;;;5113498;28;20115;-71
2022/09/17 12:07:33;;;;;;;2.80;1.33;;;15.00;99.90;;;;;;5113983;28;20040;-71
2022/09/17 12:10:17;;;;;;;2.13;0.73;;;14.80;99.90;;;;;;5113768;28;20044;-71
2022/09/17 12:12:52;;;;;;;2.75;1.13;;;14.90;99.90;;;;;;5113193;28;20051;-71
2022/09/17 12:15:24;;;;;;;2.22;1.08;;;15.00;99.90;;;;;;5113569;28;20055;-71
2022/09/17 12:18:00;;;;;;;3.30;1.42;;;15.00;99.90;;;;;;5113663;28;20196;-71
2022/09/17 12:20:31;;;;;;;2.35;0.68;;;15.00;99.90;;;;;;5113700;28;20046;-71
2022/09/17 12:23:03;;;;;;;2.60;1.38;;;14.90;99.90;;;;;;5113212;28;20040;-71
2022/09/17 12:25:38;;;;;;;1.30;0.77;;;14.80;99.90;;;;;;5113100;28;20044;-71
2022/09/17 12:28:10;;;;;;;1.40;0.60;;;14.70;99.90;;;;;;5113455;28;20114;-71
2022/09/17 12:30:44;;;;;;;1.08;0.40;;;14.40;99.90;;;;;;5113602;28;20507;-71
2022/09/17 12:33:19;;;;;;;1.42;0.60;;;14.10;99.90;;;;;;5113120;28;20058;-71
2022/09/17 12:36:16;;;;;;;1.30;0.70;;;13.90;99.90;;;;;;5113299;28;20078;-71
2022/09/17 12:38:50;;;;;;;;;;;13.80;99.90;;;;;;5092016;28;20093;-71
2022/09/17 12:41:21;;;;;;;3.05;0.90;;;13.90;99.90;;;;;;5113323;28;19977;-71
2022/09/17 12:44:15;;;;;;;1.55;0.90;;;14.00;99.90;;;;;;5113109;28;20509;-71
2022/09/17 12:46:59;;;;;;;2.85;1.00;;;14.00;99.90;;;;;;5113339;28;20074;-70
2022/09/17 12:49:43;;;;;;;3.75;1.50;;;14.00;99.90;;;;;;5113330;28;20048;-71
2022/09/17 12:52:20;;;;;;;4.72;2.30;;;14.00;99.90;;;;;;5116939;28;20040;-70
2022/09/17 12:55:23;;;;;;;3.90;2.22;;;14.10;99.90;;;;;;5116665;28;20425;-71
2022/09/17 12:57:59;;;;;;;10.93;6.53;;;14.20;99.90;;;;;;5117142;28;20050;-71
2022/09/17 13:00:27;;;;;;;12.02;6.93;;;14.20;99.90;;;;;;5098579;28;20067;-71
2022/09/17 13:03:02;;;;;;;4.70;2.80;;;14.20;99.90;;;;;;5116545;28;20043;-70
2022/09/17 13:06:00;;;;;;;5.70;1.50;;;14.10;99.90;;;;;;5116813;28;20127;-71
2022/09/17 13:09:00;;;;;;;2.17;1.15;;;14.10;99.90;;;;;;5057101;28;20078;-71
2022/09/17 13:11:45;;;;;;;4.03;1.38;;;14.00;99.90;;;;;;5116648;28;20059;-71
2022/09/17 13:14:20;;;;;;;4.07;2.00;;;14.00;99.90;;;;;;5116574;28;20451;-71